Belfast, New York
Current Conditions -  °F | °C
As of 9:35 PM on Saturday 22 Nov 2014 (Local Time) from KOLE Reporting Station
Drizzle Drizzle  
Wind Chill: 26°   Ceiling: 2200
Heat Index: 36°   Visibility: 5mi
Dew Point: 36°   Wind: 15mph
Humidity: 100%   Direction: 210°SSW
Pressure: 30.02"   Gusts: 21mph
Location:  42.34°N, 78.11°W
Report Text: KOLE 230235Z AUTO 21013G18KT 5SM DZ OVC022 02/02 A3002 RMK AO2
Loading
Personal Weather Stations






























Interactive Weather Map New forecast layout! Learn more

10-Day Weather Forecast

Advertisements
Track Severe Weather on mobile